Friday, April 24, 2015, 8:16 PM EDT
Back to Local

KCXY, Harrisburg Capital City

Location: New Cumberland, PA, United States Lat: 40.217
Local Time: 8:16 PM EDT ( 0:16 GMT) Lon: -76.85
Time Zone: US/Eastern Elev: 347 ft

Show me the last for .
Show Decoded

2015-04-24 19:56 METAR KCXY 242356Z 31009G19KT 10SM CLR 12/M11 A2991 RMK AO2 SLP129 T01171111
                 10133 20111 53005 =
2015-04-24 18:56 METAR KCXY 242256Z 31010G21KT 10SM CLR 13/M09 A2989 RMK AO2 PK WND 30026/2228
                 SLP124 T01281089 =
2015-04-24 17:56 METAR KCXY 242156Z 31016G26KT 10SM CLR 13/M09 A2989 RMK AO2 PK WND 30029/2141
                 SLP124 T01331094 =
2015-04-24 14:56 METAR KCXY 241856Z 31015G28KT 10SM FEW090 12/M08 A2991 RMK AO2 PK WND 28028/1850
                 SLP130 T01221078 =
2015-04-24 13:56 METAR KCXY 241756Z 31012G23KT 10SM SCT065 11/M08 A2992 RMK AO2 PK WND 29029/1739
                 SLP134 T01111078 10117 20039 58016 =
2015-04-24 12:56 METAR KCXY 241656Z 31017G27KT 10SM CLR 10/M08 A2993 RMK AO2 PK WND 31027/1655
                 SLP139 T01001083 =
2015-04-24 11:56 METAR KCXY 241556Z 30016G27KT 10SM CLR 09/M07 A2995 RMK AO2 PK WND 31027/1554
                 SLP146 T00941072 =
2015-04-24 10:56 METAR KCXY 241456Z 30012G21KT 10SM CLR 07/M08 A2996 RMK AO2 PK WND 29026/1405
                 SLP150 T00721078 58011 =
2015-04-24 09:56 METAR KCXY 241356Z 30014G23KT 10SM CLR 06/M07 A2998 RMK AO2 PK WND 28028/1329
                 SLP155 T00611072 =
2015-04-24 08:56 METAR KCXY 241256Z 31016G24KT 10SM SCT050 05/M08 A2999 RMK AO2 SLP158 T00501083
                 =
2015-04-24 07:56 METAR KCXY 241156Z 30014KT 10SM BKN055 04/M08 A3000 RMK AO2 SLP161 T00391083
                 10039 20022 50006 =
2015-04-24 06:56 METAR KCXY 241056Z 31012KT 10SM OVC055 03/M06 A3000 RMK AO2 SLP162 T00281056 =
2015-04-24 05:56 METAR KCXY 240956Z AUTO 29010KT 10SM FEW041 OVC055 03/M06 A2998 RMK AO2 SLP157
                 T00281056 =
2015-04-24 04:56 METAR KCXY 240856Z AUTO 31016G22KT 10SM OVC048 03/M06 A2998 RMK AO2 PK WND
                 30027/0841 SLP155 T00281061 51011 =
2015-04-24 03:56 METAR KCXY 240756Z AUTO 28009KT 10SM OVC046 03/M06 A2998 RMK AO2 SLP154
                 T00281061 =
2015-04-24 02:56 METAR KCXY 240656Z AUTO 29007KT 10SM BKN046 OVC055 02/M04 A2996 RMK AO2 PK WND
                 32027/0623 SLP150 T00221044 =
2015-04-24 01:56 METAR KCXY 240556Z AUTO 31012G18KT 10SM OVC047 03/M07 A2994 RMK AO2 SLP143
                 T00331067 10061 20033 53005 =
2015-04-24 00:56 METAR KCXY 240456Z AUTO 30009KT 10SM OVC048 04/M06 A2994 RMK AO2 SLP141
                 T00391056 400890022 =
2015-04-23 23:56 METAR KCXY 240356Z AUTO 30012G20KT 10SM OVC055 04/M06 A2993 RMK AO2 SLP137
                 T00391061 =
2015-04-23 22:56 METAR KCXY 240256Z AUTO 30015G20KT 10SM OVC060 04/M06 A2993 RMK AO2 SLP138
                 T00441061 51012 =
2015-04-23 21:56 METAR KCXY 240156Z AUTO 31014G25KT 10SM OVC060 05/M06 A2992 RMK AO2 SLP136
                 T00501056 =
2015-04-23 20:56 METAR KCXY 240056Z AUTO 31012G18KT 10SM OVC060 06/M04 A2992 RMK AO2 SLP134
                 T00561044 =

Support USWX by starting your Amazon purchase here.